createdAt,value
2023-04-29T00:00:28.900Z,1.33
2023-04-29T00:05:33.047Z,1.20
2023-04-29T00:10:37.186Z,1.15
2023-04-29T00:15:42.537Z,1.20
2023-04-29T00:20:46.484Z,2.33
2023-04-29T00:25:51.321Z,2.22
2023-04-29T00:30:56.473Z,1.55
2023-04-29T00:36:00.909Z,1.52
2023-04-29T00:41:05.451Z,1.13
2023-04-29T00:46:11.241Z,1.80
2023-04-29T00:51:15.520Z,1.23
2023-04-29T00:56:21.798Z,1.30
2023-04-29T01:01:25.980Z,1.20
2023-04-29T01:06:59.280Z,1.20
2023-04-29T01:12:23.379Z,0.95
2023-04-29T01:17:32.312Z,1.00
2023-04-29T01:22:36.432Z,1.20
2023-04-29T01:27:48.957Z,2.45
2023-04-29T01:33:23.120Z,2.60
2023-04-29T01:38:40.708Z,1.38
2023-04-29T01:43:49.281Z,1.30
2023-04-29T01:48:58.207Z,1.15
2023-04-29T01:54:02.798Z,1.23
2023-04-29T01:59:06.819Z,1.10
2023-04-29T02:04:20.126Z,1.30
2023-04-29T02:09:24.340Z,1.10
2023-04-29T02:15:11.343Z,2.25
2023-04-29T02:20:15.398Z,1.00
2023-04-29T02:25:19.770Z,1.05
2023-04-29T02:30:24.795Z,1.17
2023-04-29T02:35:28.907Z,1.20
2023-04-29T02:40:33.622Z,1.23
2023-04-29T02:45:38.475Z,1.10
2023-04-29T02:50:42.772Z,0.80
2023-04-29T02:55:46.651Z,0.70
2023-04-29T03:00:51.638Z,1.20
2023-04-29T03:05:55.503Z,0.90
2023-04-29T03:10:59.818Z,1.00
2023-04-29T03:16:07.579Z,0.85
2023-04-29T03:21:12.277Z,1.00
2023-04-29T03:26:16.311Z,1.15
2023-04-29T03:31:22.034Z,1.10
2023-04-29T03:36:26.369Z,0.88
2023-04-29T03:41:40.400Z,0.95
2023-04-29T03:46:46.543Z,0.90
2023-04-29T03:51:50.772Z,1.52
2023-04-29T03:56:56.432Z,0.90
2023-04-29T04:02:01.257Z,1.10
2023-04-29T04:07:06.827Z,0.98
2023-04-29T04:12:28.909Z,0.70
2023-04-29T04:17:33.448Z,0.70
2023-04-29T04:22:38.822Z,1.10
2023-04-29T04:27:52.439Z,1.20
2023-04-29T04:33:08.372Z,1.00
2023-04-29T04:38:14.000Z,1.13
2023-04-29T04:43:18.620Z,1.02
2023-04-29T04:48:23.102Z,0.82
2023-04-29T04:53:28.222Z,1.00
2023-04-29T04:58:36.871Z,1.40
2023-04-29T05:03:41.914Z,1.10
2023-04-29T05:08:46.526Z,1.55
2023-04-29T05:13:51.849Z,1.38
2023-04-29T05:18:56.681Z,1.20
2023-04-29T05:24:09.420Z,1.30
2023-04-29T05:29:14.296Z,1.50
2023-04-29T05:34:26.266Z,1.88
2023-04-29T05:39:30.308Z,1.42
2023-04-29T05:44:44.720Z,1.30
2023-04-29T05:49:50.047Z,1.17
2023-04-29T05:54:54.099Z,1.00
2023-04-29T06:00:00.304Z,1.15
2023-04-29T06:05:09.701Z,1.00
2023-04-29T06:10:20.201Z,0.90
2023-04-29T06:15:24.471Z,1.00
2023-04-29T06:20:29.121Z,1.25
2023-04-29T06:25:33.334Z,1.10
2023-04-29T06:30:41.018Z,1.00
2023-04-29T06:35:45.585Z,1.13
2023-04-29T06:41:07.857Z,1.15
2023-04-29T06:46:31.105Z,0.80
2023-04-29T06:51:46.201Z,1.00
2023-04-29T06:56:50.049Z,0.93
2023-04-29T07:01:54.942Z,1.10
2023-04-29T07:07:00.365Z,1.20
2023-04-29T07:12:05.920Z,1.10
2023-04-29T07:17:10.930Z,1.65
2023-04-29T07:22:16.911Z,1.20
2023-04-29T07:27:21.006Z,1.17
2023-04-29T07:32:25.190Z,1.30
2023-04-29T07:37:29.262Z,1.05
2023-04-29T07:42:33.448Z,1.48
2023-04-29T07:47:38.492Z,1.10
2023-04-29T07:52:42.723Z,1.10
2023-04-29T07:57:46.802Z,1.85
2023-04-29T08:02:57.686Z,1.50
2023-04-29T08:08:03.173Z,1.90
2023-04-29T08:13:07.082Z,1.35
2023-04-29T08:18:11.225Z,1.55
2023-04-29T08:23:15.267Z,1.77
2023-04-29T08:28:19.837Z,1.30
2023-04-29T08:33:23.965Z,2.20
2023-04-29T08:38:28.652Z,1.55
2023-04-29T08:43:36.193Z,1.65
2023-04-29T08:48:44.773Z,1.52
2023-04-29T08:53:49.226Z,1.80
2023-04-29T08:58:59.628Z,1.77
2023-04-29T09:04:14.119Z,1.85
2023-04-29T09:09:20.836Z,1.73
2023-04-29T09:14:26.411Z,1.38
2023-04-29T09:19:35.772Z,1.95
2023-04-29T09:24:40.581Z,1.50
2023-04-29T09:30:01.649Z,2.50
2023-04-29T09:35:24.558Z,1.58
2023-04-29T09:40:46.623Z,1.85
2023-04-29T09:45:54.876Z,1.80
2023-04-29T09:51:06.827Z,1.30
2023-04-29T09:56:10.756Z,1.77
2023-04-29T10:01:18.839Z,1.67
2023-04-29T10:06:24.996Z,1.60
2023-04-29T10:11:29.453Z,1.67
2023-04-29T10:16:42.870Z,1.80
2023-04-29T10:21:50.642Z,1.80
2023-04-29T10:26:57.579Z,1.30
2023-04-29T10:32:02.897Z,2.08
2023-04-29T10:37:12.146Z,1.63
2023-04-29T10:42:47.141Z,1.90
2023-04-29T10:48:13.311Z,1.73
2023-04-29T10:53:23.216Z,1.63
2023-04-29T11:03:59.635Z,1.48
2023-04-29T11:09:08.488Z,1.83
2023-04-29T11:14:14.822Z,1.60
2023-04-29T11:19:19.225Z,1.20
2023-04-29T11:24:23.421Z,1.30
2023-04-29T11:29:28.802Z,1.35
2023-04-29T11:34:34.195Z,1.60
2023-04-29T11:39:38.214Z,2.55
2023-04-29T11:44:42.309Z,2.15
2023-04-29T11:49:46.302Z,2.10
2023-04-29T11:54:50.552Z,1.20
2023-04-29T11:59:54.820Z,4.47
2023-04-29T12:05:02.309Z,1.45
2023-04-29T12:10:12.004Z,1.33
2023-04-29T12:15:16.886Z,1.10
2023-04-29T12:20:21.282Z,1.20
2023-04-29T12:25:29.063Z,1.08
2023-04-29T12:30:36.713Z,1.25
2023-04-29T12:35:40.851Z,1.60
2023-04-29T12:40:46.460Z,1.42
2023-04-29T12:45:50.469Z,1.42
2023-04-29T12:50:54.693Z,1.50
2023-04-29T12:55:59.697Z,0.93
2023-04-29T13:01:04.366Z,1.20
2023-04-29T13:06:09.528Z,1.88
2023-04-29T13:11:14.190Z,2.28
2023-04-29T13:16:18.792Z,1.15
2023-04-29T13:21:23.023Z,1.27
2023-04-29T13:26:28.075Z,0.90
2023-04-29T13:31:32.284Z,1.00
2023-04-29T13:36:36.882Z,1.40
2023-04-29T13:41:42.242Z,1.30
2023-04-29T13:46:50.522Z,1.20
2023-04-29T13:52:45.800Z,1.38
2023-04-29T13:57:50.053Z,1.48
2023-04-29T14:02:45.325Z,1.30
2023-04-29T14:07:49.750Z,1.27
2023-04-29T14:12:53.695Z,1.40
2023-04-29T14:17:57.676Z,1.60
2023-04-29T14:23:01.754Z,1.67
2023-04-29T14:28:06.137Z,1.58
2023-04-29T14:33:10.685Z,1.70
2023-04-29T14:38:15.137Z,2.60
2023-04-29T14:43:19.549Z,3.83
2023-04-29T14:48:23.631Z,14.20
2023-04-29T14:53:27.540Z,4.55
2023-04-29T14:58:31.806Z,7.55
2023-04-29T15:08:57.694Z,7.10
2023-04-29T15:14:01.692Z,2.63
2023-04-29T15:19:05.719Z,4.45
2023-04-29T15:24:10.084Z,15.57
2023-04-29T15:29:14.042Z,30.98
2023-04-29T15:34:17.998Z,30.10
2023-04-29T15:39:22.044Z,26.42
2023-04-29T15:44:26.157Z,33.08
2023-04-29T15:49:31.425Z,80.22
2023-04-29T15:54:35.515Z,53.75
2023-04-29T15:59:39.439Z,48.92
2023-04-29T16:04:43.535Z,27.60
2023-04-29T16:09:47.761Z,25.30
2023-04-29T16:14:52.306Z,14.93
2023-04-29T16:19:56.618Z,22.25
2023-04-29T16:25:00.706Z,26.75
2023-04-29T16:30:06.728Z,23.98
2023-04-29T16:35:11.870Z,22.67
2023-04-29T16:40:15.909Z,19.88
2023-04-29T16:45:21.624Z,21.75
2023-04-29T16:50:27.898Z,22.65
2023-04-29T16:55:32.290Z,25.40
2023-04-29T17:00:36.684Z,26.65
2023-04-29T17:05:41.270Z,24.02
2023-04-29T17:10:45.813Z,25.45
2023-04-29T17:15:49.820Z,22.58
2023-04-29T17:20:54.079Z,22.00
2023-04-29T17:25:58.279Z,21.35
2023-04-29T17:31:03.498Z,20.23
2023-04-29T17:36:07.861Z,20.02
2023-04-29T17:41:12.032Z,18.50
2023-04-29T17:46:16.081Z,18.38
2023-04-29T17:51:19.951Z,16.00
2023-04-29T17:56:24.054Z,14.60
2023-04-29T18:01:28.217Z,11.07
2023-04-29T18:06:32.530Z,12.98
2023-04-29T18:11:36.642Z,11.52
2023-04-29T18:16:41.320Z,18.20
2023-04-29T18:21:45.462Z,15.40
2023-04-29T18:26:49.557Z,15.98
2023-04-29T18:31:55.684Z,12.35
2023-04-29T18:36:59.737Z,15.73
2023-04-29T18:42:05.265Z,19.23
2023-04-29T18:47:09.133Z,18.77
2023-04-29T18:52:13.429Z,18.10
2023-04-29T18:57:17.568Z,14.18
2023-04-29T19:02:21.642Z,9.52
2023-04-29T19:07:25.676Z,6.10
2023-04-29T19:12:29.555Z,7.50
2023-04-29T19:17:33.651Z,9.48
2023-04-29T19:22:38.212Z,9.55
2023-04-29T19:27:45.921Z,7.95
2023-04-29T19:32:49.815Z,7.40
2023-04-29T19:37:55.497Z,6.45
2023-04-29T19:42:59.450Z,5.80
2023-04-29T19:48:04.764Z,5.43
2023-04-29T19:53:08.695Z,4.78
2023-04-29T19:58:12.937Z,4.85
2023-04-29T20:03:17.206Z,4.15
2023-04-29T20:08:21.308Z,5.35
2023-04-29T20:13:25.378Z,5.82
2023-04-29T20:18:29.379Z,5.78
2023-04-29T20:23:33.418Z,4.47
2023-04-29T20:28:39.631Z,4.72
2023-04-29T20:34:44.106Z,5.47
2023-04-29T20:39:48.665Z,5.03
2023-04-29T20:44:52.713Z,4.72
2023-04-29T20:49:56.810Z,5.97
2023-04-29T20:55:02.003Z,5.95
2023-04-29T21:00:09.562Z,5.32
2023-04-29T21:05:15.235Z,5.10
2023-04-29T21:10:19.382Z,5.72
2023-04-29T21:15:25.197Z,7.95
2023-04-29T21:20:29.191Z,6.78
2023-04-29T21:25:33.431Z,7.50
2023-04-29T21:30:37.622Z,7.32
2023-04-29T21:35:44.023Z,7.68
2023-04-29T21:40:49.159Z,7.60
2023-04-29T21:45:55.609Z,6.93
2023-04-29T21:51:00.555Z,6.88
2023-04-29T21:56:06.296Z,7.28
2023-04-29T22:01:36.862Z,6.32
2023-04-29T22:06:40.951Z,7.10
2023-04-29T22:11:44.998Z,9.30
2023-04-29T22:16:49.072Z,9.40
2023-04-29T22:21:53.145Z,9.68
2023-04-29T22:26:57.377Z,8.05
2023-04-29T22:32:01.592Z,9.75
2023-04-29T22:37:05.854Z,7.40
2023-04-29T22:42:09.742Z,6.57
2023-04-29T22:47:13.873Z,6.18
2023-04-29T22:52:17.796Z,5.90
2023-04-29T22:57:21.919Z,17.13
2023-04-29T23:02:30.255Z,17.25
2023-04-29T23:07:34.667Z,16.97
2023-04-29T23:12:38.613Z,13.48
2023-04-29T23:17:42.625Z,13.55
2023-04-29T23:22:46.710Z,11.93
2023-04-29T23:27:50.640Z,11.00
2023-04-29T23:32:54.936Z,9.95
2023-04-29T23:37:58.977Z,10.02
2023-04-29T23:43:03.052Z,6.20
2023-04-29T23:48:07.296Z,6.90
2023-04-29T23:53:11.252Z,4.90
2023-04-29T23:58:15.297Z,4.22
